This is the latest recevied weather packets stored in our database for station/object DH1NAI-6. If no packets are shown the sender has not sent any weather packets the latest 10 day(s).
| Time | Temp. | Humidity | Pressure | Rain* | Wind** | Luminosity | Snow |
|---|---|---|---|---|---|---|---|
| 1787813669 | 18.33° C | 84% | 1015.2 hPa | 0 mm | - | 58 W/m² | - |
| 1787813061 | 18.33° C | 83% | 1015.2 hPa | 0 mm | - | 29 W/m² | - |
| 1787812453 | 18.33° C | 84% | 1015.1 hPa | 0 mm | - | 21 W/m² | - |
| 1787811845 | 17.78° C | 84% | 1015.1 hPa | 0 mm | - | 17 W/m² | - |
| 1787811237 | 16.11° C | 91% | 1015 hPa | 0 mm | - | 12 W/m² | - |
| 1787810629 | 15° C | 94% | 1015.3 hPa | 0 mm | - | 10 W/m² | - |
| 1787810021 | 14.44° C | 94% | 1015 hPa | 0 mm | - | 9 W/m² | - |
| 1787809413 | 14.44° C | 94% | 1015.1 hPa | 0 mm | - | 8 W/m² | - |
| 1787808805 | 14.44° C | 94% | 1015.1 hPa | 0 mm | - | 6 W/m² | - |
| 1787808197 | 14.44° C | 96% | 1015.3 hPa | 0 mm | - | 7 W/m² | - |
| 1787807589 | 13.33° C | 98% | 1015 hPa | 0 mm | - | 8 W/m² | - |
| 1787806981 | 12.78° C | 99% | 1015.1 hPa | 0 mm | - | 6 W/m² | - |
| 1787806373 | 12.78° C | 99% | 1015.2 hPa | 0 mm | - | 4 W/m² | - |
| 1787805765 | 12.78° C | 99% | 1015.2 hPa | 0 mm | - | 2 W/m² | - |
| 1787805157 | 12.78° C | 99% | 1015.2 hPa | 0 mm | - | 2 W/m² | - |
| 1787804549 | 12.22° C | 99% | 1014.9 hPa | 0 mm | - | 0 W/m² | - |
| 1787803941 | 12.22° C | 99% | 1015.1 hPa | 0 mm | - | 0 W/m² | - |
| 1787803333 | 12.78° C | 99% | 1015 hPa | 0 mm | - | 0 W/m² | - |
| 1787802725 | 12.78° C | 99% | 1015.3 hPa | 0 mm | - | 0 W/m² | - |
| 1787802117 | 12.78° C | 99% | 1015.1 hPa | 0 mm | - | 0 W/m² | - |
| 1787801493 | 12.78° C | 99% | 1015.1 hPa | 0 mm | - | 0 W/m² | - |
| 1787800891 | 13.33° C | 98% | 1015.4 hPa | 0 mm | - | 0 W/m² | - |
| 1787800277 | 13.33° C | 98% | 1015.3 hPa | 0 mm | - | 0 W/m² | - |
| 1787799670 | 13.33° C | 97% | 1015.3 hPa | 0 mm | - | 0 W/m² | - |
| 1787799061 | 13.89° C | 96% | 1015.4 hPa | 0 mm | - | 0 W/m² | - |
* Rain latest hour (hover to see other rain measurements)
** Current wind speed in m/s (hover to see current wind gust speed)